createdAt,value
2023-04-01T00:02:20.480Z,27.27
2023-04-01T00:04:48.680Z,30.73
2023-04-01T00:07:16.568Z,24.58
2023-04-01T00:09:45.812Z,23.17
2023-04-01T00:12:13.629Z,28.83
2023-04-01T00:14:41.442Z,20.92
2023-04-01T00:17:09.187Z,25.83
2023-04-01T00:19:38.040Z,26.38
2023-04-01T00:22:06.376Z,23.42
2023-04-01T00:24:34.218Z,27.23
2023-04-01T00:27:03.426Z,23.05
2023-04-01T00:29:31.730Z,20.27
2023-04-01T00:31:59.866Z,26.05
2023-04-01T00:34:27.690Z,23.90
2023-04-01T00:36:55.571Z,25.93
2023-04-01T00:39:23.524Z,28.60
2023-04-01T00:41:51.377Z,25.33
2023-04-01T00:44:23.781Z,19.75
2023-04-01T00:46:53.513Z,28.80
2023-04-01T00:49:27.094Z,20.67
2023-04-01T00:51:58.201Z,25.00
2023-04-01T00:54:28.806Z,26.55
2023-04-01T00:57:01.036Z,26.00
2023-04-01T00:59:34.423Z,23.52
2023-04-01T01:02:03.596Z,21.10
2023-04-01T01:04:34.246Z,22.73
2023-04-01T01:07:14.458Z,25.02
2023-04-01T01:09:53.131Z,22.63
2023-04-01T01:12:25.438Z,24.10
2023-04-01T01:15:04.786Z,19.77
2023-04-01T01:17:42.511Z,20.15
2023-04-01T01:20:35.889Z,18.02
2023-04-01T01:23:29.944Z,17.15
2023-04-01T01:26:11.048Z,13.35
2023-04-01T01:28:49.869Z,12.30
2023-04-01T01:31:25.448Z,10.35
2023-04-01T01:34:07.436Z,12.73
2023-04-01T01:36:38.601Z,9.52
2023-04-01T01:39:11.522Z,8.95
2023-04-01T01:41:41.909Z,9.53
2023-04-01T01:44:13.014Z,9.98
2023-04-01T01:46:43.195Z,9.90
2023-04-01T01:49:12.520Z,11.27
2023-04-01T01:51:44.022Z,10.82
2023-04-01T01:54:15.508Z,11.50
2023-04-01T01:56:45.301Z,11.45
2023-04-01T01:59:14.969Z,14.25
2023-04-01T02:01:47.640Z,12.52
2023-04-01T02:04:17.076Z,13.75
2023-04-01T02:06:53.385Z,13.57
2023-04-01T02:09:22.011Z,13.38
2023-04-01T02:11:52.967Z,14.02
2023-04-01T02:14:24.438Z,13.85
2023-04-01T02:16:56.596Z,12.73
2023-04-01T02:19:28.598Z,13.07
2023-04-01T02:22:03.037Z,12.55
2023-04-01T02:24:33.836Z,11.90
2023-04-01T02:27:01.706Z,14.68
2023-04-01T02:29:30.974Z,13.85
2023-04-01T02:32:00.085Z,15.63
2023-04-01T02:34:28.614Z,15.63
2023-04-01T02:36:59.341Z,15.52
2023-04-01T02:39:27.451Z,15.00
2023-04-01T02:41:55.621Z,17.15
2023-04-01T02:44:24.332Z,14.90
2023-04-01T02:46:52.468Z,15.82
2023-04-01T02:49:21.125Z,14.00
2023-04-01T02:51:49.036Z,12.68
2023-04-01T02:54:18.177Z,14.13
2023-04-01T02:56:46.512Z,12.57
2023-04-01T02:59:14.438Z,14.07
2023-04-01T03:01:42.432Z,11.95
2023-04-01T03:04:10.231Z,14.05
2023-04-01T03:06:38.075Z,13.48
2023-04-01T03:09:06.389Z,14.17
2023-04-01T03:11:36.549Z,14.60
2023-04-01T03:14:04.348Z,11.65
2023-04-01T03:16:32.376Z,12.40
2023-04-01T03:19:02.918Z,13.18
2023-04-01T03:21:30.837Z,12.10
2023-04-01T03:23:59.627Z,13.18
2023-04-01T03:26:28.765Z,14.50
2023-04-01T03:28:58.234Z,12.35
2023-04-01T03:31:26.659Z,11.65
2023-04-01T03:33:57.681Z,15.47
2023-04-01T03:36:25.588Z,13.32
2023-04-01T03:38:53.837Z,12.80
2023-04-01T03:41:31.465Z,12.38
2023-04-01T03:44:00.805Z,12.73
2023-04-01T03:46:28.851Z,12.07
2023-04-01T03:48:56.930Z,12.80
2023-04-01T03:51:25.146Z,12.77
2023-04-01T03:53:53.645Z,12.60
2023-04-01T03:56:21.622Z,14.23
2023-04-01T03:58:49.503Z,13.07
2023-04-01T04:01:21.768Z,14.63
2023-04-01T04:03:53.486Z,13.80
2023-04-01T04:06:23.195Z,15.18
2023-04-01T04:08:51.703Z,13.63
2023-04-01T04:11:21.031Z,13.67
2023-04-01T04:13:49.813Z,16.52
2023-04-01T04:16:19.500Z,16.58
2023-04-01T04:18:52.946Z,17.88
2023-04-01T04:21:20.791Z,16.88
2023-04-01T04:23:48.534Z,16.27
2023-04-01T04:26:19.025Z,21.13
2023-04-01T04:28:56.839Z,20.77
2023-04-01T04:31:27.263Z,18.48
2023-04-01T04:33:57.903Z,18.52
2023-04-01T04:36:26.706Z,19.70
2023-04-01T04:38:54.655Z,21.35
2023-04-01T04:41:22.920Z,23.45
2023-04-01T04:43:53.596Z,22.15
2023-04-01T04:46:22.226Z,32.60
2023-04-01T04:48:55.093Z,32.13
2023-04-01T04:51:24.823Z,28.70
2023-04-01T04:53:53.399Z,32.63
2023-04-01T04:56:28.594Z,30.20
2023-04-01T04:59:05.370Z,27.55
2023-04-01T05:01:43.116Z,25.97
2023-04-01T05:04:12.506Z,29.75
2023-04-01T05:06:40.391Z,27.13
2023-04-01T05:09:08.468Z,33.67
2023-04-01T05:11:36.593Z,32.67
2023-04-01T05:14:04.729Z,29.47
2023-04-01T05:16:33.871Z,34.88
2023-04-01T05:19:02.175Z,28.50
2023-04-01T05:21:32.046Z,35.45
2023-04-01T05:24:00.143Z,29.88
2023-04-01T05:26:29.010Z,30.47
2023-04-01T05:28:56.925Z,24.15
2023-04-01T05:31:26.642Z,29.80
2023-04-01T05:33:55.298Z,29.05
2023-04-01T05:36:24.088Z,33.25
2023-04-01T05:38:57.097Z,30.20
2023-04-01T05:41:26.881Z,38.28
2023-04-01T05:43:55.307Z,38.63
2023-04-01T05:46:41.467Z,38.53
2023-04-01T05:49:28.861Z,38.55
2023-04-01T05:51:57.582Z,40.00
2023-04-01T05:54:27.099Z,35.67
2023-04-01T05:56:55.118Z,37.83
2023-04-01T05:59:23.051Z,38.17
2023-04-01T06:01:52.301Z,36.55
2023-04-01T06:04:22.133Z,36.27
2023-04-01T06:06:50.069Z,35.97
2023-04-01T06:09:20.080Z,39.42
2023-04-01T06:12:18.984Z,40.22
2023-04-01T06:15:01.127Z,36.63
2023-04-01T06:17:40.029Z,35.93
2023-04-01T06:20:14.345Z,40.38
2023-04-01T06:22:55.724Z,33.92
2023-04-01T06:25:45.920Z,40.47
2023-04-01T06:28:41.331Z,36.47
2023-04-01T06:31:18.674Z,29.63
2023-04-01T06:33:58.845Z,33.20
2023-04-01T06:36:49.438Z,36.00
2023-04-01T06:39:49.676Z,30.60
2023-04-01T06:42:39.328Z,29.85
2023-04-01T06:45:32.687Z,25.03
2023-04-01T06:48:34.506Z,29.73
2023-04-01T06:51:39.892Z,25.15
2023-04-01T06:54:33.515Z,30.90
2023-04-01T06:57:28.162Z,35.42
2023-04-01T06:59:59.610Z,30.93
2023-04-01T07:02:38.380Z,37.08
2023-04-01T07:05:07.313Z,30.00
2023-04-01T07:07:38.776Z,37.45
2023-04-01T07:10:17.677Z,32.53
2023-04-01T07:13:26.687Z,31.70
2023-04-01T07:16:10.703Z,36.47
2023-04-01T07:18:49.770Z,30.98
2023-04-01T07:21:30.511Z,27.73
2023-04-01T07:24:06.658Z,29.42
2023-04-01T07:26:39.300Z,24.97
2023-04-01T07:29:13.741Z,25.88
2023-04-01T07:32:03.644Z,25.33
2023-04-01T07:34:40.702Z,25.05
2023-04-01T07:37:15.458Z,24.90
2023-04-01T07:39:54.275Z,22.10
2023-04-01T07:42:47.125Z,25.10
2023-04-01T07:45:24.194Z,21.75
2023-04-01T07:48:08.653Z,22.67
2023-04-01T07:50:44.574Z,22.13
2023-04-01T07:53:21.823Z,20.43
2023-04-01T07:55:58.659Z,21.08
2023-04-01T07:58:37.582Z,19.88
2023-04-01T08:01:19.526Z,23.33
2023-04-01T08:04:07.026Z,22.35
2023-04-01T08:06:40.777Z,22.50
2023-04-01T08:09:19.967Z,23.48
2023-04-01T08:12:20.891Z,23.27
2023-04-01T08:15:23.049Z,27.73
2023-04-01T08:18:38.799Z,26.92
2023-04-01T08:21:12.896Z,24.60
2023-04-01T08:23:46.083Z,26.67
2023-04-01T08:26:30.679Z,26.02
2023-04-01T08:29:03.905Z,25.27
2023-04-01T08:31:39.588Z,24.80
2023-04-01T08:34:16.714Z,21.63
2023-04-01T08:36:49.217Z,26.95
2023-04-01T08:39:24.087Z,19.33
2023-04-01T08:42:24.133Z,23.27
2023-04-01T08:45:20.490Z,23.92
2023-04-01T08:48:28.312Z,26.37
2023-04-01T08:51:24.703Z,22.30
2023-04-01T08:54:26.962Z,19.70
2023-04-01T08:57:03.381Z,18.67
2023-04-01T08:59:52.758Z,18.77
2023-04-01T09:02:55.589Z,15.60
2023-04-01T09:05:38.606Z,19.05
2023-04-01T09:08:23.261Z,18.30
2023-04-01T09:11:19.653Z,24.00
2023-04-01T09:14:33.368Z,24.00
2023-04-01T09:17:30.664Z,21.60
2023-04-01T09:20:18.635Z,20.42
2023-04-01T09:22:57.384Z,21.15
2023-04-01T09:25:59.915Z,20.10
2023-04-01T09:28:35.122Z,22.90
2023-04-01T09:31:18.961Z,21.67
2023-04-01T09:34:30.337Z,20.40
2023-04-01T09:37:23.075Z,23.20
2023-04-01T09:40:19.183Z,20.75
2023-04-01T09:43:18.636Z,22.73
2023-04-01T09:45:58.548Z,27.77
2023-04-01T09:48:41.926Z,24.63
2023-04-01T09:51:22.612Z,26.60
2023-04-01T09:54:06.853Z,23.13
2023-04-01T09:57:21.634Z,27.67
2023-04-01T10:00:41.772Z,27.73
2023-04-01T10:03:42.338Z,26.13
2023-04-01T10:06:59.261Z,27.23
2023-04-01T10:09:59.498Z,26.58
2023-04-01T10:12:58.307Z,23.85
2023-04-01T10:16:07.752Z,21.40
2023-04-01T10:19:10.462Z,23.90
2023-04-01T10:22:10.859Z,18.83
2023-04-01T10:25:06.285Z,21.52
2023-04-01T10:27:53.639Z,22.00
2023-04-01T10:30:51.348Z,20.57
2023-04-01T10:34:03.658Z,21.77
2023-04-01T10:36:52.524Z,18.85
2023-04-01T10:39:54.729Z,19.80
2023-04-01T10:43:15.176Z,20.30
2023-04-01T10:46:20.520Z,17.20
2023-04-01T10:49:34.003Z,20.10
2023-04-01T10:52:40.391Z,24.88
2023-04-01T10:56:04.607Z,18.25
2023-04-01T10:59:29.130Z,23.00
2023-04-01T11:02:47.709Z,21.07
2023-04-01T11:06:11.771Z,23.15
2023-04-01T11:09:22.805Z,16.30
2023-04-01T11:12:31.558Z,18.33
2023-04-01T11:15:23.527Z,18.42
2023-04-01T11:18:34.953Z,14.50
2023-04-01T11:21:54.503Z,16.85
2023-04-01T11:24:57.738Z,15.70
2023-04-01T11:27:57.314Z,14.30
2023-04-01T11:30:41.394Z,13.15
2023-04-01T11:33:17.017Z,12.80
2023-04-01T11:36:07.152Z,11.95
2023-04-01T11:38:47.324Z,14.55
2023-04-01T11:41:41.023Z,13.00
2023-04-01T11:44:44.300Z,13.27
2023-04-01T11:47:49.492Z,13.77
2023-04-01T11:50:26.659Z,11.68
2023-04-01T11:53:12.376Z,11.00
2023-04-01T11:55:53.714Z,13.70
2023-04-01T11:58:55.657Z,16.52
2023-04-01T12:01:34.110Z,12.70
2023-04-01T12:04:35.653Z,11.55
2023-04-01T12:07:15.376Z,10.57
2023-04-01T12:09:51.565Z,12.60
2023-04-01T12:12:27.623Z,15.18
2023-04-01T12:15:04.825Z,13.77
2023-04-01T12:17:41.894Z,15.93
2023-04-01T12:20:38.777Z,9.45
2023-04-01T12:23:24.358Z,11.27
2023-04-01T12:26:20.688Z,10.52
2023-04-01T12:29:05.962Z,10.97
2023-04-01T12:31:44.739Z,10.27
2023-04-01T12:34:36.398Z,9.38
2023-04-01T12:37:14.448Z,9.18
2023-04-01T12:40:20.174Z,9.50
2023-04-01T12:43:01.014Z,10.60
2023-04-01T12:45:34.153Z,11.50
2023-04-01T12:48:25.763Z,9.95
2023-04-01T12:51:10.118Z,11.77
2023-04-01T12:53:53.553Z,10.63
2023-04-01T12:56:35.575Z,9.07
2023-04-01T12:59:26.541Z,9.18
2023-04-01T13:02:03.499Z,10.27
2023-04-01T13:04:58.437Z,9.48
2023-04-01T13:07:54.077Z,10.00
2023-04-01T13:10:47.012Z,11.60
2023-04-01T13:13:33.806Z,10.48
2023-04-01T13:16:10.009Z,8.88
2023-04-01T13:18:46.011Z,11.63
2023-04-01T13:21:19.726Z,9.30
2023-04-01T13:24:02.068Z,8.73
2023-04-01T13:26:39.744Z,9.68
2023-04-01T13:29:15.162Z,8.57
2023-04-01T13:31:57.734Z,10.18
2023-04-01T13:34:41.123Z,9.90
2023-04-01T13:37:22.134Z,10.17
2023-04-01T13:40:03.813Z,9.35
2023-04-01T13:42:39.854Z,7.95
2023-04-01T13:45:17.037Z,9.00
2023-04-01T13:48:13.529Z,7.85
2023-04-01T13:51:12.430Z,8.37
2023-04-01T13:54:18.940Z,10.77
2023-04-01T13:56:57.128Z,8.23
2023-04-01T13:59:59.152Z,9.27
2023-04-01T14:02:46.184Z,8.32
2023-04-01T14:05:43.105Z,8.40
2023-04-01T14:08:22.329Z,7.95
2023-04-01T14:11:00.121Z,7.72
2023-04-01T14:13:40.864Z,10.65
2023-04-01T14:16:35.462Z,7.88
2023-04-01T14:19:21.120Z,8.83
2023-04-01T14:21:55.225Z,7.78
2023-04-01T14:24:38.183Z,8.15
2023-04-01T14:27:29.274Z,10.32
2023-04-01T14:30:16.720Z,8.68
2023-04-01T14:32:54.626Z,8.93
2023-04-01T14:35:36.184Z,7.57
2023-04-01T14:38:19.315Z,8.13
2023-04-01T14:41:08.281Z,6.20
2023-04-01T14:43:52.461Z,7.35
2023-04-01T14:46:47.559Z,8.30
2023-04-01T14:49:24.546Z,6.72
2023-04-01T14:51:54.424Z,5.93
2023-04-01T14:54:34.152Z,8.68
2023-04-01T14:57:13.068Z,7.10
2023-04-01T14:59:50.410Z,5.57
2023-04-01T15:02:47.472Z,6.90
2023-04-01T15:05:29.552Z,9.13
2023-04-01T15:08:05.044Z,8.05
2023-04-01T15:10:54.125Z,8.82
2023-04-01T15:13:36.836Z,8.40
2023-04-01T15:16:15.992Z,6.50
2023-04-01T15:18:56.926Z,6.95
2023-04-01T15:21:43.884Z,8.00
2023-04-01T15:24:20.883Z,7.72
2023-04-01T15:27:37.869Z,7.97
2023-04-01T15:30:23.798Z,6.75
2023-04-01T15:33:05.361Z,7.85
2023-04-01T15:35:43.558Z,5.65
2023-04-01T15:38:25.061Z,6.38
2023-04-01T15:41:00.648Z,8.43
2023-04-01T15:43:39.958Z,5.45
2023-04-01T15:46:46.638Z,6.70
2023-04-01T15:49:25.072Z,7.53
2023-04-01T15:52:07.885Z,7.65
2023-04-01T15:55:09.400Z,11.47
2023-04-01T15:57:46.897Z,4.43
2023-04-01T16:00:27.250Z,6.18
2023-04-01T16:03:15.602Z,8.00
2023-04-01T16:05:56.556Z,5.80
2023-04-01T16:08:59.997Z,6.53
2023-04-01T16:11:44.089Z,5.55
2023-04-01T16:14:26.261Z,7.50
2023-04-01T16:17:09.930Z,5.35
2023-04-01T16:19:46.805Z,7.05
2023-04-01T16:22:18.865Z,5.77
2023-04-01T16:24:50.675Z,7.63
2023-04-01T16:27:28.422Z,7.30
2023-04-01T16:30:03.338Z,5.43
2023-04-01T16:32:45.728Z,4.63
2023-04-01T16:35:31.116Z,4.83
2023-04-01T16:38:04.070Z,5.30
2023-04-01T16:40:43.680Z,6.35
2023-04-01T16:43:23.583Z,5.57
2023-04-01T16:46:14.424Z,7.78
2023-04-01T16:48:59.729Z,5.90
2023-04-01T16:51:34.752Z,4.65
2023-04-01T16:54:08.691Z,5.70
2023-04-01T16:56:43.995Z,5.05
2023-04-01T16:59:22.303Z,5.28
2023-04-01T17:01:57.476Z,6.50
2023-04-01T17:04:35.735Z,6.68
2023-04-01T17:07:13.889Z,7.97
2023-04-01T17:09:53.751Z,6.97
2023-04-01T17:12:29.098Z,5.82
2023-04-01T17:15:04.482Z,5.37
2023-04-01T17:17:39.815Z,6.65
2023-04-01T17:20:22.272Z,5.70
2023-04-01T17:22:57.679Z,6.55
2023-04-01T17:25:40.823Z,5.93
2023-04-01T17:28:19.857Z,5.30
2023-04-01T17:30:57.105Z,6.38
2023-04-01T17:34:01.236Z,10.10
2023-04-01T17:36:42.606Z,9.15
2023-04-01T17:39:31.441Z,9.23
2023-04-01T17:42:06.807Z,9.70
2023-04-01T17:44:47.448Z,7.63
2023-04-01T17:47:29.897Z,10.57
2023-04-01T17:50:09.504Z,7.65
2023-04-01T17:52:41.754Z,8.30
2023-04-01T17:55:34.886Z,9.10
2023-04-01T17:58:10.166Z,9.15
2023-04-01T18:03:32.039Z,8.05
2023-04-01T18:06:08.784Z,7.72
2023-04-01T18:09:00.478Z,8.53
2023-04-01T18:11:41.123Z,8.18
2023-04-01T18:14:33.761Z,10.10
2023-04-01T18:17:14.772Z,8.27
2023-04-01T18:19:51.401Z,9.73
2023-04-01T18:22:25.412Z,11.47
2023-04-01T18:25:01.597Z,9.25
2023-04-01T18:27:34.027Z,8.13
2023-04-01T18:30:08.544Z,9.77
2023-04-01T18:32:41.802Z,10.73
2023-04-01T18:35:23.371Z,14.10
2023-04-01T18:37:58.110Z,10.52
2023-04-01T18:40:34.361Z,9.05
2023-04-01T18:43:18.314Z,8.07
2023-04-01T18:45:52.668Z,8.70
2023-04-01T18:48:39.730Z,12.70
2023-04-01T18:51:16.183Z,12.27
2023-04-01T18:53:50.105Z,11.30
2023-04-01T18:56:29.284Z,9.57
2023-04-01T18:59:03.890Z,10.98
2023-04-01T19:01:40.351Z,9.17
2023-04-01T19:04:18.966Z,8.77
2023-04-01T19:06:50.326Z,11.63
2023-04-01T19:09:23.178Z,9.55
2023-04-01T19:12:16.782Z,7.88
2023-04-01T19:14:55.534Z,10.33
2023-04-01T19:17:35.548Z,10.18
2023-04-01T19:20:16.563Z,12.52
2023-04-01T19:23:04.737Z,13.15
2023-04-01T19:25:39.175Z,12.27
2023-04-01T19:28:23.174Z,10.97
2023-04-01T19:30:57.110Z,11.25
2023-04-01T19:33:38.108Z,10.85
2023-04-01T19:36:15.728Z,9.88
2023-04-01T19:38:53.014Z,10.65
2023-04-01T19:41:35.918Z,8.00
2023-04-01T19:44:17.597Z,11.82
2023-04-01T19:46:51.786Z,9.90
2023-04-01T19:49:50.152Z,10.70
2023-04-01T19:52:25.085Z,8.05
2023-04-01T19:54:59.542Z,10.30
2023-04-01T19:57:36.915Z,11.02
2023-04-01T20:00:09.499Z,11.23
2023-04-01T20:02:55.981Z,10.30
2023-04-01T20:05:35.456Z,10.23
2023-04-01T20:08:12.862Z,11.47
2023-04-01T20:10:49.924Z,12.38
2023-04-01T20:13:28.336Z,12.00
2023-04-01T20:16:05.887Z,13.07
2023-04-01T20:18:43.531Z,10.98
2023-04-01T20:21:26.740Z,10.57
2023-04-01T20:23:58.037Z,11.77
2023-04-01T20:26:32.252Z,10.52
2023-04-01T20:29:15.374Z,10.80
2023-04-01T20:31:45.968Z,11.70
2023-04-01T20:34:27.489Z,9.97
2023-04-01T20:37:24.121Z,12.48
2023-04-01T20:40:19.222Z,11.38
2023-04-01T20:42:59.634Z,11.73
2023-04-01T20:45:45.541Z,9.25
2023-04-01T20:48:36.420Z,11.10
2023-04-01T20:51:08.071Z,10.15
2023-04-01T20:53:39.605Z,12.30
2023-04-01T20:56:18.815Z,10.13
2023-04-01T20:58:56.545Z,10.82
2023-04-01T21:01:34.907Z,11.33
2023-04-01T21:04:20.673Z,13.02
2023-04-01T21:07:06.514Z,13.45
2023-04-01T21:09:55.195Z,12.88
2023-04-01T21:12:32.702Z,12.38
2023-04-01T21:15:28.293Z,13.73
2023-04-01T21:18:19.950Z,12.90
2023-04-01T21:21:23.271Z,12.55
2023-04-01T21:24:10.440Z,12.00
2023-04-01T21:26:49.766Z,10.68
2023-04-01T21:29:39.139Z,12.47
2023-04-01T21:32:22.106Z,11.60
2023-04-01T21:35:00.328Z,12.20
2023-04-01T21:38:00.028Z,9.30
2023-04-01T21:40:45.840Z,10.75
2023-04-01T21:43:28.774Z,11.70
2023-04-01T21:46:27.440Z,12.77
2023-04-01T21:49:12.261Z,11.13
2023-04-01T21:52:04.137Z,11.50
2023-04-01T21:55:04.941Z,11.80
2023-04-01T21:58:06.355Z,12.57
2023-04-01T22:00:37.312Z,10.77
2023-04-01T22:03:39.509Z,10.82
2023-04-01T22:06:21.828Z,12.05
2023-04-01T22:09:09.060Z,14.27
2023-04-01T22:11:50.422Z,12.20
2023-04-01T22:14:24.681Z,12.95
2023-04-01T22:16:58.438Z,11.90
2023-04-01T22:19:34.626Z,12.10
2023-04-01T22:22:07.533Z,10.20
2023-04-01T22:24:47.723Z,11.57
2023-04-01T22:27:23.455Z,14.88
2023-04-01T22:30:01.437Z,15.23
2023-04-01T22:32:38.211Z,11.82
2023-04-01T22:35:14.968Z,14.00
2023-04-01T22:37:51.597Z,12.50
2023-04-01T22:40:27.045Z,10.38
2023-04-01T22:43:00.119Z,10.00
2023-04-01T22:45:54.447Z,10.57
2023-04-01T22:48:29.234Z,9.15
2023-04-01T22:51:01.286Z,10.33
2023-04-01T22:53:42.098Z,10.02
2023-04-01T22:56:18.772Z,9.77
2023-04-01T22:58:52.623Z,12.48
2023-04-01T23:01:25.181Z,11.88
2023-04-01T23:03:54.200Z,12.30
2023-04-01T23:06:28.654Z,14.25
2023-04-01T23:09:08.869Z,14.95
2023-04-01T23:11:45.596Z,12.40
2023-04-01T23:14:39.006Z,13.45
2023-04-01T23:17:28.617Z,11.93
2023-04-01T23:20:06.789Z,11.60
2023-04-01T23:22:39.482Z,10.55
2023-04-01T23:25:20.622Z,13.27
2023-04-01T23:27:55.850Z,14.60
2023-04-01T23:30:59.075Z,11.57
2023-04-01T23:33:30.833Z,13.88
2023-04-01T23:36:06.116Z,12.50
2023-04-01T23:38:37.149Z,11.98
2023-04-01T23:41:07.080Z,10.23
2023-04-01T23:43:39.896Z,10.93
2023-04-01T23:46:09.689Z,12.25
2023-04-01T23:48:40.467Z,13.65
2023-04-01T23:51:16.610Z,11.38
2023-04-01T23:53:47.433Z,11.18
2023-04-01T23:56:18.082Z,10.57
2023-04-01T23:58:53.085Z,15.00
